Saint-Joseph-De-Sorel, Canada
Current Conditions -  °F | °C
As of 4:00 AM on Saturday 29 Nov 2014 (Local Time) from CYRQ Reporting Station
Clear Clear  
Wind Chill:   Ceiling: Unl
Heat Index:   Visibility: 9mi
Dew Point:   Wind: 0mph
Humidity: 85%   Direction: NA
Pressure: 30.21"   Gusts: NA
Location:  46.03°N, 73.13°W
Report Text: CYRQ 290900Z AUTO 00000KT 9SM CLR M15/M17 A3021 RMK SLP236
Loading
Personal Weather Stations






























Interactive Weather Map New forecast layout! Learn more

10-Day Weather Forecast

Advertisements
Track Severe Weather on mobile